Time;durP1;ratioP1;P1;durP2;ratioP2;P2;SDS_P1;SDS_P2;PMS_P1;PMS_P2;Temp;Humidity;BMP_temperature;BMP_pressure;BME280_temperature;BME280_humidity;BME280_pressure;Samples;Min_cycle;Max_cycle;Signal;HPM_P1;HPM_P2
2024/01/16 00:01:56;;;;;;;8.63;3.28;;;0.20;96.80;;;;;;5033180;28;19905;-75
2024/01/16 00:04:22;;;;;;;6.88;3.25;;;0.20;96.90;;;;;;5044421;28;20032;-75
2024/01/16 00:07:09;;;;;;;7.72;3.20;;;0.20;96.70;;;;;;5029796;28;20040;-76
2024/01/16 00:09:38;;;;;;;7.70;3.15;;;0.20;96.60;;;;;;5043052;28;20025;-76
2024/01/16 00:12:56;;;;;;;7.57;3.60;;;0.20;96.60;;;;;;5059650;28;20220;-76
2024/01/16 00:18:11;;;;;;;5.60;2.90;;;0.20;96.60;;;;;;4970159;28;20094;-74
2024/01/16 00:20:39;;;;;;;9.10;3.35;;;0.20;96.70;;;;;;5019603;28;20045;-75
2024/01/16 00:23:05;;;;;;;6.93;3.33;;;0.30;96.50;;;;;;5052504;28;20032;-75
2024/01/16 00:25:34;;;;;;;7.82;3.10;;;0.20;96.50;;;;;;5059511;28;20024;-75
2024/01/16 00:28:01;;;;;;;5.82;3.05;;;0.30;96.50;;;;;;5066017;28;20036;-74
2024/01/16 00:30:30;;;;;;;6.97;3.47;;;0.20;96.50;;;;;;5065773;28;20048;-77
2024/01/16 00:32:56;;;;;;;6.15;3.13;;;0.20;96.40;;;;;;5065587;28;20024;-76
2024/01/16 00:35:33;;;;;;;7.07;3.53;;;0.10;96.60;;;;;;5064048;28;20037;-76
2024/01/16 00:38:25;;;;;;;7.35;2.88;;;0.10;96.90;;;;;;5045748;28;20101;-75
2024/01/16 00:41:14;;;;;;;8.55;4.10;;;0.10;96.70;;;;;;4983854;28;20139;-75
2024/01/16 00:44:01;;;;;;;9.10;3.45;;;0.10;96.80;;;;;;5046780;28;20068;-75
2024/01/16 00:46:32;;;;;;;7.38;3.75;;;0.00;97.10;;;;;;5065220;28;20095;-75
2024/01/16 00:49:04;;;;;;;8.13;3.33;;;0.00;97.00;;;;;;5046344;28;20226;-74
2024/01/16 00:51:34;;;;;;;5.75;3.00;;;0.10;97.20;;;;;;5064515;28;20037;-75
2024/01/16 00:54:07;;;;;;;6.05;3.30;;;0.00;97.10;;;;;;5064191;28;20024;-74
2024/01/16 00:56:36;;;;;;;6.95;3.38;;;0.00;97.40;;;;;;5047024;28;20308;-76
2024/01/16 00:59:05;;;;;;;10.10;3.90;;;-0.10;97.30;;;;;;5063260;28;20087;-75
2024/01/16 01:01:40;;;;;;;6.43;3.17;;;-0.10;97.30;;;;;;5047789;28;20022;-75
2024/01/16 01:04:05;;;;;;;7.15;3.25;;;-0.10;97.30;;;;;;5045257;28;20034;-75
2024/01/16 01:06:31;;;;;;;7.60;3.33;;;0.00;97.20;;;;;;5044253;28;20052;-74
2024/01/16 01:09:00;;;;;;;6.90;3.72;;;0.00;97.00;;;;;;5045126;28;20045;-75
2024/01/16 01:11:34;;;;;;;10.48;3.85;;;0.10;97.00;;;;;;5036670;28;20201;-74
2024/01/16 01:14:00;;;;;;;5.93;3.20;;;0.10;97.00;;;;;;5043839;28;20275;-75
2024/01/16 01:16:32;;;;;;;6.13;3.30;;;0.10;97.10;;;;;;5030641;28;20033;-75
2024/01/16 01:19:04;;;;;;;7.57;3.20;;;0.10;96.90;;;;;;5044673;28;20091;-74
2024/01/16 01:21:33;;;;;;;7.10;3.30;;;0.20;97.00;;;;;;5043955;28;20091;-74
2024/01/16 01:23:58;;;;;;;9.45;3.20;;;0.20;96.80;;;;;;5058657;28;20039;-74
2024/01/16 01:26:24;;;;;;;7.15;3.05;;;0.20;96.80;;;;;;5047486;28;20020;-75
2024/01/16 01:28:52;;;;;;;9.90;3.78;;;0.20;96.80;;;;;;5063876;28;20219;-74
2024/01/16 01:31:18;;;;;;;7.57;3.47;;;0.20;96.80;;;;;;5060369;28;20025;-74
2024/01/16 01:33:47;;;;;;;8.73;3.25;;;0.10;96.90;;;;;;5062547;28;20048;-74
2024/01/16 01:36:48;;;;;;;5.63;3.08;;;0.10;97.00;;;;;;5025911;28;20084;-74
2024/01/16 01:39:22;;;;;;;6.32;2.97;;;0.00;97.00;;;;;;5047127;28;20106;-74
2024/01/16 01:41:48;;;;;;;6.70;3.10;;;0.00;97.10;;;;;;5042121;28;20076;-75
2024/01/16 01:44:15;;;;;;;8.20;3.22;;;0.00;97.10;;;;;;5042363;28;20057;-74
2024/01/16 01:46:47;;;;;;;8.13;3.13;;;0.00;97.10;;;;;;5040598;28;20035;-75
2024/01/16 01:49:18;;;;;;;7.18;3.65;;;0.10;96.90;;;;;;5021444;28;20053;-75
2024/01/16 01:51:47;;;;;;;7.68;3.20;;;0.10;96.90;;;;;;5008702;28;20378;-74
2024/01/16 01:54:17;;;;;;;8.93;3.33;;;0.10;96.90;;;;;;5042568;28;20275;-74
2024/01/16 01:56:53;;;;;;;9.05;3.20;;;0.00;97.00;;;;;;5041958;28;20217;-74
2024/01/16 01:59:25;;;;;;;8.77;3.22;;;0.00;97.00;;;;;;5025604;28;20112;-74
2024/01/16 02:02:34;;;;;;;8.35;3.58;;;-0.10;97.00;;;;;;5041781;28;20045;-75
2024/01/16 02:08:59;;;;;;;7.78;3.28;;;-0.20;97.50;;;;;;5002212;28;20085;-75
2024/01/16 02:11:48;;;;;;;8.15;3.85;;;-0.30;97.80;;;;;;5002903;28;20040;-75
2024/01/16 02:14:49;;;;;;;7.50;3.42;;;-0.40;97.90;;;;;;5002647;28;20076;-74
2024/01/16 02:17:33;;;;;;;5.93;3.40;;;-0.50;98.00;;;;;;5002750;28;20214;-75
2024/01/16 02:20:02;;;;;;;9.55;4.00;;;-0.50;98.10;;;;;;5002299;28;20353;-75
2024/01/16 02:22:54;;;;;;;6.75;3.55;;;-0.60;98.20;;;;;;5001416;28;20198;-75
2024/01/16 02:25:50;;;;;;;8.77;3.53;;;-0.60;98.40;;;;;;5002621;28;20229;-75
2024/01/16 02:28:16;;;;;;;6.90;3.17;;;-0.50;98.30;;;;;;4986141;28;20042;-75
2024/01/16 02:30:51;;;;;;;6.45;3.50;;;-0.50;98.30;;;;;;4986046;28;20057;-75
2024/01/16 02:33:23;;;;;;;8.98;3.90;;;-0.50;98.20;;;;;;4985780;28;20206;-75
2024/01/16 02:35:48;;;;;;;6.22;3.10;;;-0.50;98.30;;;;;;4985256;28;20074;-74
2024/01/16 02:38:36;;;;;;;6.78;3.53;;;-0.60;98.30;;;;;;4979428;28;20030;-75
2024/01/16 02:41:08;;;;;;;7.25;3.60;;;-0.60;98.40;;;;;;5020812;28;20038;-74
2024/01/16 02:43:36;;;;;;;8.27;3.80;;;-0.60;98.40;;;;;;5021123;28;20120;-75
2024/01/16 02:46:02;;;;;;;9.15;3.40;;;-0.70;98.70;;;;;;5039786;28;20064;-75
2024/01/16 02:48:35;;;;;;;10.35;3.95;;;-0.80;98.80;;;;;;5042138;28;20222;-75
2024/01/16 02:51:01;;;;;;;9.35;3.97;;;-0.70;98.60;;;;;;5042937;28;20060;-75
2024/01/16 02:53:30;;;;;;;8.77;3.42;;;-0.70;98.80;;;;;;5042954;28;20041;-75
2024/01/16 02:55:59;;;;;;;8.60;3.65;;;-0.80;98.80;;;;;;5059467;28;20025;-74
2024/01/16 02:58:29;;;;;;;9.65;3.75;;;-0.70;98.80;;;;;;5028532;28;20052;-74
2024/01/16 03:01:01;;;;;;;9.98;3.60;;;-0.90;98.90;;;;;;5062930;28;20037;-75
2024/01/16 03:03:30;;;;;;;9.55;3.83;;;-0.90;99.20;;;;;;5062488;28;20037;-74
2024/01/16 03:05:56;;;;;;;6.30;3.30;;;-1.00;99.20;;;;;;5044995;28;20044;-75
2024/01/16 03:08:25;;;;;;;8.50;3.70;;;-0.90;99.20;;;;;;5045280;28;20040;-75
2024/01/16 03:11:05;;;;;;;6.50;3.58;;;-0.90;99.10;;;;;;5062570;28;20017;-75
2024/01/16 03:13:44;;;;;;;7.05;3.88;;;-0.90;99.00;;;;;;5045691;28;20053;-75
2024/01/16 03:16:12;;;;;;;8.48;3.72;;;-0.90;99.00;;;;;;5042966;28;20033;-75
2024/01/16 03:18:41;;;;;;;9.30;3.60;;;-0.80;98.90;;;;;;5041002;28;20037;-75
2024/01/16 03:21:14;;;;;;;7.60;3.55;;;-0.80;98.90;;;;;;5042615;28;20224;-75
2024/01/16 03:23:40;;;;;;;7.53;3.30;;;-0.80;98.80;;;;;;5053770;28;20104;-75
2024/01/16 03:26:30;;;;;;;8.15;3.25;;;-0.90;98.90;;;;;;5062589;28;20033;-75
2024/01/16 03:28:56;;;;;;;8.35;3.72;;;-0.90;98.80;;;;;;5032580;28;20037;-75
2024/01/16 03:31:22;;;;;;;8.43;3.70;;;-1.00;99.30;;;;;;5042343;28;20040;-75
2024/01/16 03:34:15;;;;;;;8.32;3.13;;;-1.00;99.10;;;;;;5036539;28;20315;-75
2024/01/16 03:36:44;;;;;;;8.80;3.28;;;-1.10;99.20;;;;;;5042022;28;20033;-76
2024/01/16 03:39:11;;;;;;;8.05;3.55;;;-1.00;99.10;;;;;;5042011;28;20069;-74
2024/01/16 03:41:37;;;;;;;6.53;3.00;;;-1.10;99.10;;;;;;5042046;28;20059;-75
2024/01/16 03:44:31;;;;;;;7.70;3.38;;;-1.10;99.20;;;;;;5046105;28;20018;-75
2024/01/16 03:47:05;;;;;;;6.57;3.35;;;-1.10;99.20;;;;;;5042388;28;20037;-76
2024/01/16 03:49:30;;;;;;;8.40;3.80;;;-1.20;99.20;;;;;;5040484;28;20033;-75
2024/01/16 03:51:56;;;;;;;7.30;3.80;;;-1.10;99.30;;;;;;5041843;28;20273;-75
2024/01/16 03:54:22;;;;;;;7.00;3.72;;;-1.20;99.30;;;;;;5041952;28;20025;-75
2024/01/16 03:56:51;;;;;;;6.40;3.42;;;-1.20;99.30;;;;;;5041900;28;20100;-76
2024/01/16 03:59:16;;;;;;;7.20;3.67;;;-1.20;99.10;;;;;;5041701;28;20041;-76
2024/01/16 04:01:45;;;;;;;9.77;3.60;;;-1.20;99.10;;;;;;5045165;28;20051;-75
2024/01/16 04:04:11;;;;;;;7.07;3.20;;;-1.30;99.10;;;;;;5042110;28;20037;-75
2024/01/16 04:06:52;;;;;;;8.57;3.72;;;-1.30;99.20;;;;;;5041716;28;20248;-75
2024/01/16 04:09:29;;;;;;;6.43;3.47;;;-1.30;99.20;;;;;;5041949;28;20033;-75
2024/01/16 04:11:55;;;;;;;7.13;3.70;;;-1.30;99.30;;;;;;5042039;28;20092;-75
2024/01/16 04:14:21;;;;;;;8.18;3.60;;;-1.30;99.30;;;;;;5041907;28;20112;-75
2024/01/16 04:16:50;;;;;;;7.10;3.97;;;-1.40;99.20;;;;;;5023769;28;20045;-76
2024/01/16 04:19:21;;;;;;;7.93;3.70;;;-1.40;99.30;;;;;;5043685;28;20051;-75
2024/01/16 04:21:57;;;;;;;6.28;3.25;;;-1.40;99.40;;;;;;5024330;28;20060;-75
2024/01/16 04:24:23;;;;;;;10.48;4.30;;;-1.50;99.40;;;;;;5061762;28;20036;-77
2024/01/16 04:27:01;;;;;;;7.53;4.15;;;-1.50;99.40;;;;;;5061336;28;20083;-76
2024/01/16 04:29:26;;;;;;;7.85;3.65;;;-1.50;99.40;;;;;;5061919;28;20239;-77
2024/01/16 04:31:55;;;;;;;6.68;3.22;;;-1.50;99.50;;;;;;5059499;28;20057;-75
2024/01/16 04:34:21;;;;;;;8.93;3.38;;;-1.50;99.30;;;;;;5061684;28;20100;-75
2024/01/16 04:36:46;;;;;;;8.15;3.35;;;-1.50;99.20;;;;;;5053367;28;20032;-77
2024/01/16 04:40:05;;;;;;;7.57;3.30;;;-1.40;99.10;;;;;;5024133;28;20049;-77
2024/01/16 04:42:37;;;;;;;6.00;3.05;;;-1.50;99.20;;;;;;5041785;28;20212;-74
2024/01/16 04:45:11;;;;;;;7.43;3.70;;;-1.60;99.20;;;;;;5041743;28;20033;-75
2024/01/16 04:47:37;;;;;;;6.35;3.30;;;-1.60;99.30;;;;;;5039671;28;20316;-75
2024/01/16 04:50:03;;;;;;;8.48;3.42;;;-1.60;99.40;;;;;;5041369;28;20037;-75
2024/01/16 04:52:29;;;;;;;8.57;3.47;;;-1.70;99.50;;;;;;5027326;28;20040;-76
2024/01/16 04:54:55;;;;;;;8.82;3.72;;;-1.70;99.60;;;;;;5041880;28;20033;-75
2024/01/16 04:57:21;;;;;;;9.95;3.92;;;-1.70;99.50;;;;;;5023942;28;20037;-77
2024/01/16 04:59:46;;;;;;;7.30;3.47;;;-1.70;99.70;;;;;;5040912;28;20110;-75
2024/01/16 05:02:17;;;;;;;6.97;3.60;;;-1.70;99.60;;;;;;5024107;28;20044;-77
2024/01/16 05:04:43;;;;;;;8.48;3.83;;;-1.70;99.40;;;;;;5041584;28;20044;-76
2024/01/16 05:07:08;;;;;;;6.97;3.53;;;-1.70;99.40;;;;;;5027543;28;20025;-77
2024/01/16 05:09:34;;;;;;;7.97;3.60;;;-1.80;99.40;;;;;;5048372;28;20028;-76
2024/01/16 05:12:00;;;;;;;7.18;3.63;;;-1.80;99.60;;;;;;5044718;28;20108;-76
2024/01/16 05:14:26;;;;;;;5.85;3.20;;;-1.90;99.60;;;;;;5045060;28;20207;-77
2024/01/16 05:16:52;;;;;;;6.55;3.33;;;-1.90;99.60;;;;;;5010692;28;20041;-76
2024/01/16 05:19:27;;;;;;;8.57;3.03;;;-2.00;99.60;;;;;;5044005;28;20029;-77
2024/01/16 05:21:53;;;;;;;8.88;4.07;;;-2.00;99.60;;;;;;5044432;28;20049;-77
2024/01/16 05:24:19;;;;;;;5.85;3.30;;;-2.00;99.70;;;;;;5062162;28;20095;-76
2024/01/16 05:27:25;;;;;;;6.80;3.65;;;-2.10;99.90;;;;;;5042188;28;20033;-76
2024/01/16 05:29:51;;;;;;;9.05;3.95;;;-2.20;99.90;;;;;;5064123;28;20025;-76
2024/01/16 05:32:17;;;;;;;6.80;3.58;;;-2.20;99.90;;;;;;5030781;28;20330;-78
2024/01/16 05:34:42;;;;;;;8.15;3.80;;;-2.30;99.90;;;;;;5046462;28;20020;-77
2024/01/16 05:37:08;;;;;;;10.45;4.13;;;-2.30;99.90;;;;;;5063892;28;20370;-75
2024/01/16 05:39:34;;;;;;;8.38;4.63;;;-2.20;99.90;;;;;;5062587;28;20032;-77
2024/01/16 05:41:59;;;;;;;10.25;4.40;;;-2.20;99.90;;;;;;5064442;28;20326;-77
2024/01/16 05:44:28;;;;;;;8.60;4.07;;;-2.20;99.90;;;;;;5054167;28;20183;-77
2024/01/16 05:46:56;;;;;;;7.95;4.00;;;-2.20;99.90;;;;;;5044673;28;20045;-76
2024/01/16 05:49:37;;;;;;;8.05;3.65;;;-2.20;99.90;;;;;;5043726;28;20021;-77
2024/01/16 05:52:03;;;;;;;7.35;3.47;;;-2.20;99.90;;;;;;5044206;28;20046;-76
2024/01/16 05:54:29;;;;;;;8.85;3.92;;;-2.20;99.90;;;;;;5043865;28;20073;-78
2024/01/16 05:57:19;;;;;;;7.22;3.40;;;-2.30;99.90;;;;;;5044594;28;20025;-77
2024/01/16 05:59:48;;;;;;;10.00;3.70;;;-2.20;99.90;;;;;;5025837;28;20068;-77
2024/01/16 06:02:14;;;;;;;6.80;3.20;;;-2.10;99.90;;;;;;5051792;28;20029;-78
2024/01/16 06:04:42;;;;;;;7.95;3.72;;;-2.10;99.80;;;;;;5063366;28;20017;-76
2024/01/16 06:07:08;;;;;;;7.40;3.53;;;-2.10;99.90;;;;;;5063817;28;20029;-77
2024/01/16 06:09:41;;;;;;;7.43;3.75;;;-2.00;99.90;;;;;;5062129;28;20035;-77
2024/01/16 06:12:08;;;;;;;7.03;3.28;;;-2.00;99.90;;;;;;5063748;28;20027;-76
2024/01/16 06:15:01;;;;;;;5.00;3.00;;;-2.00;99.80;;;;;;5062586;28;20031;-75
2024/01/16 06:17:42;;;;;;;8.40;2.92;;;-1.90;99.70;;;;;;5062033;28;20164;-77
2024/01/16 06:20:08;;;;;;;14.77;4.10;;;-1.90;99.90;;;;;;5025473;28;20060;-76
2024/01/16 06:22:36;;;;;;;8.95;3.42;;;-1.90;99.90;;;;;;5046250;28;20277;-77
2024/01/16 06:25:11;;;;;;;9.80;3.75;;;-1.80;99.90;;;;;;5063613;28;20104;-77
2024/01/16 06:27:43;;;;;;;7.20;3.55;;;-1.70;99.70;;;;;;5045600;28;20333;-77
2024/01/16 06:30:12;;;;;;;8.52;4.00;;;-1.70;99.90;;;;;;5045672;28;20056;-76
2024/01/16 06:32:39;;;;;;;8.85;3.85;;;-1.70;99.60;;;;;;5045156;28;20056;-78
2024/01/16 06:35:32;;;;;;;9.50;3.63;;;-1.80;99.70;;;;;;5048807;28;20039;-77
2024/01/16 06:38:01;;;;;;;8.82;4.13;;;-1.70;99.90;;;;;;5054248;28;20103;-77
2024/01/16 06:40:30;;;;;;;10.25;3.70;;;-1.70;99.70;;;;;;5025099;28;20095;-77
2024/01/16 06:43:06;;;;;;;6.78;3.30;;;-1.80;99.80;;;;;;5043293;28;20040;-78
2024/01/16 06:45:36;;;;;;;7.43;3.33;;;-1.70;99.40;;;;;;5041567;28;20205;-77
2024/01/16 06:48:02;;;;;;;6.40;3.00;;;-1.60;98.40;;;;;;5043284;28;20377;-77
2024/01/16 06:50:31;;;;;;;6.90;2.92;;;-1.50;97.80;;;;;;5024713;28;20065;-78
2024/01/16 06:52:57;;;;;;;8.95;2.70;;;-1.60;97.40;;;;;;5031594;28;20060;-77
2024/01/16 06:55:27;;;;;;;6.57;3.00;;;-1.60;97.20;;;;;;5055266;28;20393;-76
2024/01/16 06:57:52;;;;;;;9.75;2.88;;;-1.50;97.10;;;;;;5044753;28;20203;-77
2024/01/16 07:00:19;;;;;;;6.97;3.30;;;-1.50;97.10;;;;;;5044361;28;20050;-77
2024/01/16 07:02:45;;;;;;;6.68;2.60;;;-1.50;96.90;;;;;;5062027;28;20036;-77
2024/01/16 07:05:14;;;;;;;18.52;3.38;;;-1.50;96.80;;;;;;5062806;28;20259;-76
2024/01/16 07:07:59;;;;;;;5.95;2.60;;;-1.50;96.80;;;;;;5062138;28;20052;-77
2024/01/16 07:10:25;;;;;;;7.75;3.17;;;-1.50;96.70;;;;;;5044559;28;20282;-76
2024/01/16 07:12:51;;;;;;;5.35;2.50;;;-1.60;96.50;;;;;;5038610;28;20021;-77
2024/01/16 07:15:20;;;;;;;7.40;2.80;;;-1.60;96.60;;;;;;5062346;28;20037;-77
2024/01/16 07:17:45;;;;;;;5.72;2.55;;;-1.60;96.30;;;;;;5062421;28;20036;-77
2024/01/16 07:20:11;;;;;;;5.20;2.72;;;-1.60;96.20;;;;;;5062603;28;20208;-77
2024/01/16 07:22:39;;;;;;;5.78;2.97;;;-1.60;96.00;;;;;;5058977;28;20383;-77
2024/01/16 07:25:08;;;;;;;6.25;2.42;;;-1.60;95.80;;;;;;5042517;28;20017;-76
2024/01/16 07:27:34;;;;;;;5.57;2.45;;;-1.60;95.90;;;;;;5041419;28;20365;-76
2024/01/16 07:30:04;;;;;;;6.43;2.65;;;-1.60;95.90;;;;;;5044458;28;20025;-76
2024/01/16 07:32:29;;;;;;;5.53;2.50;;;-1.60;95.90;;;;;;5061349;28;20039;-76
2024/01/16 07:35:03;;;;;;;5.38;2.95;;;-1.60;95.60;;;;;;5061936;28;20029;-76
2024/01/16 07:37:32;;;;;;;5.47;2.22;;;-1.50;95.50;;;;;;5043757;28;20040;-76
2024/01/16 07:39:58;;;;;;;7.13;3.08;;;-1.50;95.40;;;;;;5062001;28;20043;-76
2024/01/16 07:42:24;;;;;;;4.75;2.35;;;-1.50;95.30;;;;;;5062254;28;20032;-76
2024/01/16 07:44:51;;;;;;;5.30;2.40;;;-1.40;95.40;;;;;;5027708;28;20028;-75
2024/01/16 07:47:17;;;;;;;4.65;2.55;;;-1.40;94.90;;;;;;5051348;28;20339;-77
2024/01/16 07:50:30;;;;;;;6.30;2.50;;;-1.30;95.00;;;;;;5041634;28;20057;-76
2024/01/16 07:53:22;;;;;;;8.57;2.78;;;-1.30;95.10;;;;;;5031665;28;20097;-77
2024/01/16 07:56:00;;;;;;;5.13;2.38;;;-1.30;95.20;;;;;;5038160;28;20053;-76
2024/01/16 07:58:26;;;;;;;9.70;3.40;;;-1.30;95.40;;;;;;5042146;28;20021;-76
2024/01/16 08:00:51;;;;;;;9.55;4.03;;;-1.20;95.80;;;;;;5041372;28;20040;-77
2024/01/16 08:03:17;;;;;;;12.52;4.15;;;-1.10;96.20;;;;;;5041701;28;20040;-78
2024/01/16 08:05:44;;;;;;;9.55;3.42;;;-1.00;96.10;;;;;;5029187;28;20073;-77
2024/01/16 08:11:03;;;;;;;7.38;2.70;;;-0.90;95.30;;;;;;5001676;28;20045;-76
2024/01/16 08:13:38;;;;;;;8.38;2.92;;;-0.80;95.40;;;;;;5021876;28;20065;-77
2024/01/16 08:16:07;;;;;;;7.05;2.42;;;-0.70;94.50;;;;;;5022318;28;20034;-76
2024/01/16 08:18:34;;;;;;;8.77;3.35;;;-0.60;94.60;;;;;;5020500;28;20034;-76
2024/01/16 08:21:02;;;;;;;7.68;3.05;;;-0.60;94.70;;;;;;5025643;28;20010;-75
2024/01/16 08:23:41;;;;;;;6.07;3.05;;;-0.50;94.60;;;;;;5029092;28;20029;-75
2024/01/16 08:26:10;;;;;;;7.07;2.92;;;-0.40;94.40;;;;;;5040752;28;20096;-76
2024/01/16 08:28:36;;;;;;;9.93;3.35;;;-0.30;94.40;;;;;;5029318;28;20038;-76
2024/01/16 08:31:02;;;;;;;7.97;3.38;;;-0.20;94.20;;;;;;5019266;28;20052;-76
2024/01/16 08:33:31;;;;;;;5.72;3.00;;;-0.10;94.20;;;;;;5021493;28;20014;-76
2024/01/16 08:36:08;;;;;;;6.38;3.13;;;0.00;93.90;;;;;;4988053;28;20043;-75
2024/01/16 08:38:36;;;;;;;7.25;2.55;;;0.10;93.80;;;;;;5022420;28;20100;-76
2024/01/16 08:41:06;;;;;;;5.30;2.55;;;0.10;93.70;;;;;;5008665;28;20046;-76
2024/01/16 08:43:54;;;;;;;7.03;2.95;;;0.20;93.30;;;;;;4988183;28;20154;-76
2024/01/16 08:46:23;;;;;;;5.38;2.45;;;0.20;93.20;;;;;;5005658;28;20042;-75
2024/01/16 08:48:58;;;;;;;5.60;2.60;;;0.30;93.20;;;;;;5004985;28;20038;-76
2024/01/16 08:51:32;;;;;;;6.70;2.65;;;0.30;92.70;;;;;;5015968;28;20069;-75
2024/01/16 08:53:59;;;;;;;5.60;2.70;;;0.30;92.90;;;;;;5024334;28;20112;-76
2024/01/16 08:56:25;;;;;;;7.10;2.83;;;0.50;93.10;;;;;;5027723;28;20100;-75
2024/01/16 08:58:58;;;;;;;4.22;1.90;;;0.60;91.60;;;;;;5007480;28;20145;-75
2024/01/16 09:01:42;;;;;;;7.55;2.33;;;0.60;91.30;;;;;;5025021;28;20026;-76
2024/01/16 09:04:11;;;;;;;7.28;2.50;;;0.50;90.90;;;;;;5025090;28;20037;-75
2024/01/16 09:06:38;;;;;;;5.70;2.47;;;0.40;90.90;;;;;;4991044;28;20033;-75
2024/01/16 09:09:10;;;;;;;4.82;2.15;;;0.40;91.00;;;;;;5025222;28;20100;-75
2024/01/16 09:11:36;;;;;;;5.95;2.33;;;0.40;91.00;;;;;;5007283;28;20057;-76
2024/01/16 09:14:01;;;;;;;5.78;2.53;;;0.30;90.90;;;;;;5039416;28;20037;-76
2024/01/16 09:16:27;;;;;;;10.20;2.60;;;0.40;91.50;;;;;;5045028;28;20025;-76
2024/01/16 09:18:53;;;;;;;8.77;2.75;;;0.60;91.90;;;;;;5044605;28;20037;-76
2024/01/16 09:21:18;;;;;;;6.78;2.85;;;0.70;91.80;;;;;;5027165;28;20037;-76
2024/01/16 09:23:59;;;;;;;8.57;3.05;;;0.90;91.30;;;;;;5031734;28;20034;-75
2024/01/16 09:26:25;;;;;;;7.05;3.00;;;0.90;91.50;;;;;;5024947;28;20089;-76
2024/01/16 09:28:50;;;;;;;7.38;3.13;;;1.00;91.40;;;;;;5024164;28;20259;-77
2024/01/16 09:31:16;;;;;;;9.43;3.13;;;1.10;91.40;;;;;;5031105;28;20028;-76
2024/01/16 09:33:45;;;;;;;10.77;3.40;;;1.20;91.20;;;;;;5023500;28;20209;-75
2024/01/16 09:36:17;;;;;;;9.52;2.83;;;1.30;91.30;;;;;;5023703;28;20038;-75
2024/01/16 09:38:43;;;;;;;12.35;3.05;;;1.40;90.50;;;;;;5024292;28;20033;-76
2024/01/16 09:41:10;;;;;;;7.22;2.83;;;1.50;90.60;;;;;;5044681;28;20052;-77
2024/01/16 09:43:39;;;;;;;8.82;2.83;;;1.50;90.80;;;;;;5026461;28;20018;-76
2024/01/16 09:46:10;;;;;;;8.13;3.20;;;1.60;90.60;;;;;;5044434;28;20017;-76
2024/01/16 09:48:36;;;;;;;8.13;2.60;;;1.50;89.10;;;;;;5025903;28;20263;-77
2024/01/16 09:51:14;;;;;;;7.22;2.95;;;1.70;90.00;;;;;;5043331;28;20095;-75
2024/01/16 09:53:43;;;;;;;10.02;3.30;;;1.90;90.20;;;;;;5025328;28;20045;-75
2024/01/16 09:56:15;;;;;;;8.07;2.85;;;2.20;89.80;;;;;;5044092;28;20037;-75
2024/01/16 09:58:42;;;;;;;5.85;2.97;;;2.30;89.60;;;;;;5025362;28;20041;-76
2024/01/16 10:01:11;;;;;;;7.57;2.60;;;2.50;88.60;;;;;;5036628;28;20087;-75
2024/01/16 10:03:47;;;;;;;5.00;2.20;;;2.50;86.40;;;;;;5006040;28;20029;-75
2024/01/16 10:06:20;;;;;;;5.97;2.42;;;2.30;84.40;;;;;;5006107;28;20034;-75
2024/01/16 10:08:46;;;;;;;11.52;3.25;;;2.30;86.50;;;;;;5006297;28;20335;-75
2024/01/16 10:11:24;;;;;;;9.32;3.60;;;2.60;87.50;;;;;;5023683;28;20013;-75
2024/01/16 10:13:49;;;;;;;11.35;3.53;;;2.80;87.20;;;;;;5005847;28;20065;-75
2024/01/16 10:16:21;;;;;;;12.00;3.33;;;2.80;88.30;;;;;;5023664;28;20296;-75
2024/01/16 10:19:12;;;;;;;7.25;2.80;;;3.00;87.90;;;;;;5011888;28;20057;-74
2024/01/16 10:21:40;;;;;;;6.60;2.75;;;3.20;86.60;;;;;;5004613;28;20346;-75
2024/01/16 10:24:35;;;;;;;7.78;3.17;;;3.30;86.40;;;;;;5020827;28;20033;-74
2024/01/16 10:27:07;;;;;;;9.32;2.90;;;3.50;85.00;;;;;;5025623;28;20159;-75
2024/01/16 10:29:33;;;;;;;8.90;3.22;;;3.50;86.00;;;;;;5025134;28;20232;-75
2024/01/16 10:32:02;;;;;;;9.85;3.10;;;3.60;85.70;;;;;;5043631;28;20018;-74
2024/01/16 10:34:31;;;;;;;7.55;3.22;;;3.70;85.20;;;;;;5043346;28;20075;-75
2024/01/16 10:37:00;;;;;;;9.23;3.17;;;3.70;84.70;;;;;;5037332;28;20029;-75
2024/01/16 10:39:39;;;;;;;7.40;3.15;;;3.70;84.50;;;;;;5042730;28;20119;-75
2024/01/16 10:42:05;;;;;;;9.00;3.15;;;3.60;84.20;;;;;;5042004;28;20033;-75
2024/01/16 10:44:31;;;;;;;7.07;3.03;;;3.60;84.70;;;;;;5041242;28;20025;-75
2024/01/16 10:47:12;;;;;;;8.27;3.42;;;3.70;85.90;;;;;;5042929;28;20060;-75
2024/01/16 10:49:38;;;;;;;12.43;3.40;;;3.80;85.10;;;;;;5042993;28;20040;-75
2024/01/16 10:52:09;;;;;;;8.10;2.90;;;3.90;84.30;;;;;;5043278;28;20053;-75
2024/01/16 10:54:37;;;;;;;6.20;3.35;;;3.70;82.80;;;;;;5025445;28;20045;-75
2024/01/16 10:57:04;;;;;;;7.07;3.53;;;3.70;83.30;;;;;;5023561;28;20089;-76
2024/01/16 10:59:48;;;;;;;8.95;3.38;;;3.80;84.20;;;;;;5022313;28;20103;-74
2024/01/16 11:02:22;;;;;;;9.00;2.83;;;3.90;83.50;;;;;;5038804;28;20343;-75
2024/01/16 11:05:01;;;;;;;7.97;2.83;;;4.00;83.00;;;;;;5024514;28;20610;-75
2024/01/16 11:07:31;;;;;;;6.25;3.00;;;4.00;82.30;;;;;;5042837;28;20042;-74
2024/01/16 11:09:56;;;;;;;5.18;3.25;;;4.10;81.10;;;;;;5019223;28;20189;-75
2024/01/16 11:12:25;;;;;;;8.27;2.72;;;4.30;81.10;;;;;;5042739;28;20025;-75
2024/01/16 11:14:52;;;;;;;6.53;3.42;;;4.60;81.40;;;;;;5042123;28;20052;-76
2024/01/16 11:17:20;;;;;;;7.55;3.22;;;4.90;80.40;;;;;;5037880;28;20041;-75
2024/01/16 11:19:47;;;;;;;8.75;3.05;;;5.30;80.00;;;;;;5042109;28;20025;-76
2024/01/16 11:22:15;;;;;;;8.25;3.13;;;5.60;78.70;;;;;;5042047;28;20056;-76
2024/01/16 11:24:42;;;;;;;8.37;3.33;;;5.70;76.60;;;;;;5022308;28;20026;-74
2024/01/16 11:27:08;;;;;;;9.57;3.00;;;6.00;76.20;;;;;;5005247;28;20448;-74
2024/01/16 11:29:37;;;;;;;10.10;3.17;;;6.60;75.00;;;;;;5021709;28;20448;-75
2024/01/16 11:32:04;;;;;;;5.97;2.80;;;6.80;73.60;;;;;;5022882;28;20030;-75
2024/01/16 11:34:41;;;;;;;10.45;2.70;;;6.90;72.80;;;;;;5021709;28;20041;-74
2024/01/16 11:37:08;;;;;;;7.93;3.05;;;7.40;72.10;;;;;;5022637;28;20049;-77
2024/01/16 11:39:34;;;;;;;8.10;3.47;;;7.80;70.40;;;;;;5016754;28;20045;-76
2024/01/16 11:42:02;;;;;;;7.55;3.20;;;7.60;70.00;;;;;;5002742;28;20053;-77
2024/01/16 11:44:46;;;;;;;7.57;2.72;;;8.40;69.70;;;;;;5006545;28;20309;-78
2024/01/16 11:47:28;;;;;;;6.90;3.00;;;8.90;68.50;;;;;;5001538;28;20078;-78
2024/01/16 11:50:27;;;;;;;7.43;3.00;;;9.80;67.20;;;;;;4985226;28;20026;-77
2024/01/16 11:52:59;;;;;;;10.68;3.08;;;10.50;64.90;;;;;;5002846;28;20057;-77
2024/01/16 11:55:47;;;;;;;9.77;3.28;;;10.90;63.20;;;;;;4985575;28;20225;-76
2024/01/16 11:58:50;;;;;;;7.47;2.43;;;11.10;61.60;;;;;;4969170;28;20097;-77
2024/01/16 12:01:20;;;;;;;11.70;2.95;;;11.10;61.50;;;;;;4996600;28;20036;-77
2024/01/16 12:03:46;;;;;;;5.47;2.50;;;11.10;61.30;;;;;;5021388;28;20061;-78
2024/01/16 12:06:16;;;;;;;5.63;2.47;;;11.10;60.80;;;;;;5004735;28;20294;-78
2024/01/16 12:08:45;;;;;;;4.85;2.47;;;11.00;60.40;;;;;;5004555;28;20037;-78
2024/01/16 12:11:10;;;;;;;5.57;2.25;;;11.50;60.00;;;;;;5021954;28;20038;-77
2024/01/16 12:13:36;;;;;;;6.75;2.28;;;11.30;59.30;;;;;;5022627;28;20022;-78
2024/01/16 12:16:08;;;;;;;4.55;2.03;;;12.20;59.10;;;;;;5007211;28;20025;-77
2024/01/16 12:18:36;;;;;;;8.10;1.92;;;13.20;57.80;;;;;;5004312;28;20152;-77
2024/01/16 12:21:10;;;;;;;4.65;2.10;;;13.70;55.90;;;;;;5008130;28;20037;-77
2024/01/16 12:23:36;;;;;;;7.78;2.30;;;12.50;55.80;;;;;;5014109;28;20093;-78
2024/01/16 12:26:05;;;;;;;5.90;2.20;;;12.70;57.20;;;;;;5004833;28;20333;-77
2024/01/16 12:28:31;;;;;;;;;;;12.30;56.70;;;;;;5004902;28;20041;-78
2024/01/16 12:31:05;;;;;;;6.07;1.98;;;12.00;56.80;;;;;;5006560;28;19917;-78
2024/01/16 12:33:31;;;;;;;6.28;2.28;;;11.80;57.10;;;;;;4988487;28;20232;-79
2024/01/16 12:36:10;;;;;;;5.47;2.25;;;11.10;57.40;;;;;;5009592;28;20054;-78
2024/01/16 12:39:02;;;;;;;3.35;1.30;;;11.80;57.20;;;;;;4992498;28;20082;-79
2024/01/16 12:41:46;;;;;;;3.17;0.90;;;12.40;55.30;;;;;;5006573;28;20042;-79
2024/01/16 12:44:17;;;;;;;3.88;1.10;;;12.10;54.00;;;;;;5005377;28;20291;-78
2024/01/16 12:46:42;;;;;;;3.90;1.20;;;11.90;53.80;;;;;;5006416;28;20030;-78
2024/01/16 12:49:11;;;;;;;4.15;1.33;;;12.10;53.80;;;;;;5013937;28;20040;-78
2024/01/16 12:51:40;;;;;;;4.10;1.30;;;11.80;55.40;;;;;;5012423;28;20054;-78
2024/01/16 12:54:21;;;;;;;4.40;1.23;;;11.40;55.90;;;;;;5025400;28;20161;-78
2024/01/16 12:56:47;;;;;;;2.83;1.23;;;11.40;54.60;;;;;;4972397;28;20220;-78
2024/01/16 12:59:17;;;;;;;6.85;2.00;;;11.30;54.40;;;;;;5005674;28;20042;-77
2024/01/16 13:01:46;;;;;;;9.30;2.65;;;11.30;55.50;;;;;;5001648;28;20041;-79
2024/01/16 13:04:15;;;;;;;6.00;1.70;;;10.80;56.20;;;;;;5027354;28;20022;-79
2024/01/16 13:07:20;;;;;;;4.20;1.42;;;10.10;56.10;;;;;;5027115;28;20469;-78
2024/01/16 13:09:46;;;;;;;5.75;1.38;;;9.70;57.70;;;;;;5024568;28;20057;-78
2024/01/16 13:12:20;;;;;;;4.13;1.08;;;9.40;57.60;;;;;;5027176;28;20034;-78
2024/01/16 13:14:46;;;;;;;4.60;1.45;;;9.00;58.60;;;;;;5025196;28;20101;-77
2024/01/16 13:17:14;;;;;;;5.43;1.40;;;8.90;59.70;;;;;;5008379;28;20018;-78
2024/01/16 13:19:41;;;;;;;5.57;1.52;;;8.80;59.60;;;;;;5025500;28;20077;-78
2024/01/16 13:22:07;;;;;;;4.65;1.70;;;8.60;60.00;;;;;;5013856;28;20030;-78
2024/01/16 13:24:33;;;;;;;5.47;1.52;;;8.30;61.40;;;;;;5025727;28;20022;-78